Time;durP1;ratioP1;P1;durP2;ratioP2;P2;SDS_P1;SDS_P2;PMS_P1;PMS_P2;Temp;Humidity;BMP_temperature;BMP_pressure;BME280_temperature;BME280_humidity;BME280_pressure;Samples;Min_cycle;Max_cycle;Signal;HPM_P1;HPM_P2
2021/09/09 00:02:06;;;;;;;;;25.00;21.33;;;;;;;;5068440;28;45489;-82
2021/09/09 00:04:31;;;;;;;;;22.50;20.75;;;;;;;;5075865;28;45303;-82
2021/09/09 00:06:56;;;;;;;;;22.75;20.75;;;;;;;;5075852;28;45497;-82
2021/09/09 00:09:21;;;;;;;;;18.67;17.67;;;;;;;;5072541;28;47391;-82
2021/09/09 00:11:47;;;;;;;;;25.00;20.25;;;;;;;;5070238;28;45437;-82
2021/09/09 00:14:12;;;;;;;;;20.33;19.33;;;;;;;;5079815;28;45317;-82
2021/09/09 00:16:37;;;;;;;;;25.75;20.75;;;;;;;;5072519;28;46628;-82
2021/09/09 00:19:02;;;;;;;;;21.25;19.75;;;;;;;;5074784;28;46459;-82
2021/09/09 00:21:28;;;;;;;;;24.00;21.50;;;;;;;;5075023;28;45493;-82
2021/09/09 00:23:53;;;;;;;;;22.00;20.00;;;;;;;;5067820;28;45308;-82
2021/09/09 00:26:18;;;;;;;;;15.33;15.00;;;;;;;;5072714;28;45426;-82
2021/09/09 00:28:44;;;;;;;;;24.50;21.75;;;;;;;;5066609;28;45815;-82
2021/09/09 00:31:09;;;;;;;;;27.50;22.25;;;;;;;;5077203;28;45354;-82
2021/09/09 00:33:34;;;;;;;;;21.67;20.00;;;;;;;;5073646;28;45282;-82
2021/09/09 00:35:59;;;;;;;;;27.50;23.75;;;;;;;;5083038;28;45483;-82
2021/09/09 00:38:24;;;;;;;;;24.75;23.25;;;;;;;;5085394;28;47731;-82
2021/09/09 00:40:51;;;;;;;;;21.33;18.33;;;;;;;;5084878;28;45464;-82
2021/09/09 00:43:16;;;;;;;;;23.50;20.75;;;;;;;;5076474;28;45425;-82
2021/09/09 00:45:48;;;;;;;;;26.00;24.00;;;;;;;;5081396;28;45315;-82
2021/09/09 00:48:13;;;;;;;;;27.00;21.75;;;;;;;;5072707;28;48605;-82
2021/09/09 00:50:38;;;;;;;;;23.67;20.00;;;;;;;;5079334;28;45358;-82
2021/09/09 00:53:04;;;;;;;;;21.00;20.00;;;;;;;;5068284;28;45359;-82
2021/09/09 00:55:29;;;;;;;;;20.33;17.67;;;;;;;;5080486;28;45681;-82
2021/09/09 00:57:54;;;;;;;;;21.00;19.00;;;;;;;;5071191;28;46101;-82
2021/09/09 01:00:19;;;;;;;;;19.25;18.50;;;;;;;;5080068;28;45448;-82
2021/09/09 01:02:45;;;;;;;;;20.33;17.00;;;;;;;;5073253;28;45432;-82
2021/09/09 01:05:10;;;;;;;;;23.75;22.50;;;;;;;;5075123;28;45252;-82
2021/09/09 01:07:36;;;;;;;;;19.25;18.75;;;;;;;;5077500;28;48166;-82
2021/09/09 01:10:01;;;;;;;;;19.25;17.75;;;;;;;;5077812;28;45397;-82
2021/09/09 01:12:26;;;;;;;;;18.50;18.50;;;;;;;;5074228;28;45421;-82
2021/09/09 01:14:52;;;;;;;;;21.00;18.75;;;;;;;;5061931;28;45434;-82
2021/09/09 01:17:17;;;;;;;;;20.00;17.00;;;;;;;;5063859;28;47273;-82
2021/09/09 01:19:42;;;;;;;;;16.25;14.25;;;;;;;;5061639;28;45470;-82
2021/09/09 01:22:08;;;;;;;;;21.00;17.00;;;;;;;;5065349;28;45486;-82
2021/09/09 01:24:33;;;;;;;;;17.50;15.00;;;;;;;;5062835;28;45458;-82
2021/09/09 01:27:06;;;;;;;;;19.00;16.00;;;;;;;;5061770;28;45741;-82
2021/09/09 01:29:36;;;;;;;;;18.25;15.00;;;;;;;;5067234;28;45408;-82
2021/09/09 01:32:02;;;;;;;;;19.75;14.25;;;;;;;;5066024;28;45379;-83
2021/09/09 01:34:27;;;;;;;;;18.50;16.00;;;;;;;;5071799;28;45357;-82
2021/09/09 01:36:53;;;;;;;;;18.50;17.75;;;;;;;;5071617;28;45330;-82
2021/09/09 01:39:19;;;;;;;;;20.00;20.00;;;;;;;;5073710;28;45418;-82
2021/09/09 01:41:44;;;;;;;;;20.00;18.25;;;;;;;;5071389;28;45553;-82
2021/09/09 01:44:10;;;;;;;;;19.75;18.25;;;;;;;;5067877;27;45419;-82
2021/09/09 01:46:35;;;;;;;;;20.25;18.00;;;;;;;;5073091;28;46657;-82
2021/09/09 01:49:01;;;;;;;;;23.50;19.25;;;;;;;;5071271;28;45412;-82
2021/09/09 01:51:26;;;;;;;;;22.75;18.75;;;;;;;;5072927;28;45302;-82
2021/09/09 01:53:52;;;;;;;;;18.75;18.00;;;;;;;;5073637;28;45420;-82
2021/09/09 01:56:17;;;;;;;;;19.75;16.50;;;;;;;;5084129;28;45375;-82
2021/09/09 01:58:42;;;;;;;;;21.33;18.00;;;;;;;;5076700;28;45379;-82
2021/09/09 02:01:08;;;;;;;;;21.50;19.75;;;;;;;;5077380;28;45461;-82
2021/09/09 02:03:34;;;;;;;;;20.50;18.75;;;;;;;;5076418;28;45500;-82
2021/09/09 02:05:59;;;;;;;;;19.75;17.25;;;;;;;;5077239;28;45449;-82
2021/09/09 02:08:24;;;;;;;;;22.00;18.00;;;;;;;;5073088;28;45441;-82
2021/09/09 02:10:49;;;;;;;;;24.00;20.00;;;;;;;;5071286;28;45322;-82
2021/09/09 02:13:15;;;;;;;;;23.00;19.33;;;;;;;;5070945;28;45404;-82
2021/09/09 02:15:41;;;;;;;;;19.75;19.00;;;;;;;;5070491;28;45261;-82
2021/09/09 02:18:06;;;;;;;;;28.00;21.50;;;;;;;;5060619;28;45364;-82
2021/09/09 02:20:31;;;;;;;;;21.00;19.67;;;;;;;;5065721;28;45236;-82
2021/09/09 02:22:56;;;;;;;;;18.00;17.67;;;;;;;;5061751;28;45319;-82
2021/09/09 02:25:22;;;;;;;;;21.33;19.00;;;;;;;;5061454;28;46096;-82
2021/09/09 02:27:47;;;;;;;;;24.75;21.00;;;;;;;;5060423;28;45236;-82
2021/09/09 02:30:12;;;;;;;;;23.50;21.75;;;;;;;;5063786;28;45237;-82
2021/09/09 02:32:38;;;;;;;;;26.75;23.00;;;;;;;;5062742;28;45187;-82
2021/09/09 02:35:03;;;;;;;;;24.50;20.25;;;;;;;;5064324;28;46244;-82
2021/09/09 02:37:28;;;;;;;;;23.75;19.00;;;;;;;;5071874;28;45311;-82
2021/09/09 02:39:54;;;;;;;;;22.00;19.67;;;;;;;;5068216;28;44645;-82
2021/09/09 02:42:19;;;;;;;;;23.67;21.33;;;;;;;;5080334;28;45253;-82
2021/09/09 02:44:44;;;;;;;;;25.67;22.67;;;;;;;;5069501;28;48209;-82
2021/09/09 02:47:10;;;;;;;;;26.25;23.25;;;;;;;;5065272;28;45539;-82
2021/09/09 02:49:35;;;;;;;;;26.75;24.25;;;;;;;;5062229;28;45392;-82
2021/09/09 02:52:00;;;;;;;;;22.75;20.75;;;;;;;;5062323;28;45415;-82
2021/09/09 02:54:26;;;;;;;;;25.33;20.33;;;;;;;;5075316;28;47141;-82
2021/09/09 02:56:51;;;;;;;;;24.25;23.00;;;;;;;;5072202;28;45369;-82
2021/09/09 02:59:17;;;;;;;;;24.67;20.33;;;;;;;;5067326;28;45561;-82
2021/09/09 03:01:42;;;;;;;;;24.00;23.00;;;;;;;;5070971;28;45472;-82
2021/09/09 03:04:07;;;;;;;;;25.75;21.50;;;;;;;;5074484;28;45500;-82
2021/09/09 03:06:33;;;;;;;;;27.50;22.75;;;;;;;;5073333;28;45460;-82
2021/09/09 03:08:58;;;;;;;;;25.50;21.00;;;;;;;;5074034;28;45398;-82
2021/09/09 03:11:24;;;;;;;;;24.75;23.00;;;;;;;;5070471;28;45659;-82
2021/09/09 03:13:49;;;;;;;;;23.50;22.50;;;;;;;;5079016;28;45525;-82
2021/09/09 03:16:14;;;;;;;;;25.75;25.00;;;;;;;;5074582;28;45454;-81
2021/09/09 03:18:40;;;;;;;;;23.33;21.00;;;;;;;;5065766;28;45324;-81
2021/09/09 03:21:05;;;;;;;;;24.50;23.00;;;;;;;;5072210;28;45512;-82
2021/09/09 03:23:30;;;;;;;;;21.33;21.33;;;;;;;;5070746;28;46122;-82
2021/09/09 03:25:55;;;;;;;;;24.00;21.75;;;;;;;;5073446;28;45419;-82
2021/09/09 03:28:21;;;;;;;;;22.00;20.00;;;;;;;;5069350;28;45433;-81
2021/09/09 03:30:46;;;;;;;;;25.00;20.25;;;;;;;;5082688;28;45264;-82
2021/09/09 03:33:11;;;;;;;;;23.33;21.00;;;;;;;;5069727;28;45469;-82
2021/09/09 03:35:36;;;;;;;;;21.67;19.33;;;;;;;;5077554;28;45385;-82
2021/09/09 03:38:02;;;;;;;;;22.25;18.75;;;;;;;;5080917;28;45403;-82
2021/09/09 03:40:27;;;;;;;;;24.50;20.75;;;;;;;;5081144;28;45512;-82
2021/09/09 03:42:52;;;;;;;;;23.25;22.75;;;;;;;;5070132;28;46329;-82
2021/09/09 03:45:18;;;;;;;;;22.33;20.67;;;;;;;;5064288;28;45382;-82
2021/09/09 03:47:43;;;;;;;;;22.50;21.50;;;;;;;;5068555;28;45278;-81
2021/09/09 03:50:09;;;;;;;;;22.25;19.25;;;;;;;;5074880;28;45478;-82
2021/09/09 03:52:34;;;;;;;;;21.25;20.25;;;;;;;;5061313;28;47216;-82
2021/09/09 03:54:59;;;;;;;;;22.67;21.33;;;;;;;;5069058;28;45603;-81
2021/09/09 03:57:24;;;;;;;;;19.67;18.33;;;;;;;;5061626;28;45215;-81
2021/09/09 03:59:50;;;;;;;;;18.67;17.33;;;;;;;;5063165;28;45690;-82
2021/09/09 04:02:15;;;;;;;;;27.25;22.00;;;;;;;;5065555;28;46235;-82
2021/09/09 04:04:41;;;;;;;;;23.25;21.75;;;;;;;;5067860;28;45383;-82
2021/09/09 04:07:06;;;;;;;;;24.33;21.67;;;;;;;;5074353;28;45398;-81
2021/09/09 04:09:31;;;;;;;;;25.00;23.00;;;;;;;;5078346;28;45415;-82
2021/09/09 04:11:56;;;;;;;;;25.00;21.33;;;;;;;;5068818;28;45636;-82
2021/09/09 04:14:21;;;;;;;;;23.00;22.00;;;;;;;;5067955;27;45554;-81
2021/09/09 04:16:47;;;;;;;;;24.33;20.33;;;;;;;;5066454;28;45479;-82
2021/09/09 04:19:12;;;;;;;;;26.33;21.67;;;;;;;;5059714;28;45409;-82
2021/09/09 04:21:37;;;;;;;;;23.67;21.00;;;;;;;;5065226;28;47262;-82
2021/09/09 04:24:02;;;;;;;;;26.00;23.67;;;;;;;;5060973;28;45558;-82
2021/09/09 04:26:28;;;;;;;;;28.50;25.25;;;;;;;;5069545;28;45524;-82
2021/09/09 04:28:53;;;;;;;;;28.00;22.33;;;;;;;;5069604;28;45515;-82
2021/09/09 04:31:18;;;;;;;;;26.25;26.00;;;;;;;;5077897;28;47199;-82
2021/09/09 04:33:43;;;;;;;;;26.75;24.50;;;;;;;;5074772;28;45378;-82
2021/09/09 04:36:09;;;;;;;;;27.00;26.00;;;;;;;;5076821;28;45602;-82
2021/09/09 04:38:34;;;;;;;;;25.00;25.00;;;;;;;;5072714;28;45492;-82
2021/09/09 04:40:59;;;;;;;;;23.33;22.33;;;;;;;;5069558;28;46473;-81
2021/09/09 04:43:24;;;;;;;;;28.00;23.67;;;;;;;;5081987;28;45443;-81
2021/09/09 04:45:50;;;;;;;;;22.50;22.25;;;;;;;;5083298;28;45297;-82
2021/09/09 04:48:15;;;;;;;;;28.00;23.33;;;;;;;;5066224;28;45448;-82
2021/09/09 04:50:40;;;;;;;;;25.33;20.33;;;;;;;;5062613;28;47327;-82
2021/09/09 04:53:06;;;;;;;;;22.50;21.50;;;;;;;;5070276;28;45357;-81
2021/09/09 04:55:31;;;;;;;;;20.33;19.33;;;;;;;;5075122;28;45580;-82
2021/09/09 04:57:56;;;;;;;;;26.00;26.00;;;;;;;;5063848;28;46327;-82
2021/09/09 05:00:21;;;;;;;;;25.33;23.67;;;;;;;;5076569;28;45478;-83
2021/09/09 05:02:46;;;;;;;;;24.33;22.33;;;;;;;;5072025;28;45297;-82
2021/09/09 05:05:12;;;;;;;;;25.33;22.33;;;;;;;;5080873;28;45658;-82
2021/09/09 05:07:38;;;;;;;;;26.75;25.25;;;;;;;;5066139;28;45451;-82
2021/09/09 05:10:03;;;;;;;;;24.00;22.25;;;;;;;;5061668;28;46275;-83
2021/09/09 05:12:29;;;;;;;;;26.25;22.00;;;;;;;;5064319;28;45283;-82
2021/09/09 05:14:54;;;;;;;;;24.25;22.25;;;;;;;;5061472;28;45195;-83
2021/09/09 05:17:19;;;;;;;;;26.33;26.33;;;;;;;;5063541;28;45492;-83
2021/09/09 05:19:45;;;;;;;;;30.00;27.33;;;;;;;;5061638;28;45970;-83
2021/09/09 05:22:10;;;;;;;;;31.33;29.67;;;;;;;;5064039;28;45360;-83
2021/09/09 05:24:35;;;;;;;;;35.33;28.67;;;;;;;;5062758;28;45413;-82
2021/09/09 05:27:00;;;;;;;;;30.00;28.67;;;;;;;;5062975;28;45488;-83
2021/09/09 05:29:25;;;;;;;;;31.67;26.33;;;;;;;;5060991;28;45624;-83
2021/09/09 05:31:51;;;;;;;;;31.75;26.75;;;;;;;;5062191;28;45384;-83
2021/09/09 05:34:16;;;;;;;;;30.67;26.67;;;;;;;;5064127;28;45360;-83
2021/09/09 05:36:41;;;;;;;;;29.50;25.25;;;;;;;;5063439;28;45434;-81
2021/09/09 05:39:06;;;;;;;;;27.25;21.75;;;;;;;;5064337;28;45374;-79
2021/09/09 05:41:32;;;;;;;;;30.67;28.33;;;;;;;;5066154;28;45369;-83
2021/09/09 05:43:57;;;;;;;;;34.75;29.00;;;;;;;;5064453;28;45434;-83
2021/09/09 05:46:22;;;;;;;;;30.67;28.00;;;;;;;;5059917;28;46296;-82
2021/09/09 05:48:48;;;;;;;;;29.33;27.00;;;;;;;;5062624;28;45505;-81
2021/09/09 05:51:13;;;;;;;;;32.25;25.75;;;;;;;;5062793;28;45700;-81
2021/09/09 05:53:38;;;;;;;;;26.25;24.25;;;;;;;;5061300;28;45352;-81
2021/09/09 05:56:04;;;;;;;;;32.67;26.67;;;;;;;;5060623;28;46768;-81
2021/09/09 05:58:29;;;;;;;;;37.00;31.75;;;;;;;;5061254;28;45771;-81
2021/09/09 06:00:54;;;;;;;;;33.00;30.33;;;;;;;;5062717;28;45429;-81
2021/09/09 06:03:24;;;;;;;;;31.67;26.33;;;;;;;;5066443;28;45419;-81
2021/09/09 06:05:49;;;;;;;;;32.50;30.50;;;;;;;;5062157;28;45323;-81
2021/09/09 06:08:15;;;;;;;;;37.00;30.50;;;;;;;;5061337;28;46589;-81
2021/09/09 06:10:40;;;;;;;;;29.25;25.75;;;;;;;;5066112;27;45475;-81
2021/09/09 06:13:05;;;;;;;;;35.25;29.75;;;;;;;;5074809;28;45334;-80
2021/09/09 06:15:30;;;;;;;;;37.00;30.75;;;;;;;;5077569;28;45362;-80
2021/09/09 06:17:56;;;;;;;;;38.00;29.67;;;;;;;;5059109;28;48499;-81
2021/09/09 06:20:21;;;;;;;;;33.75;28.50;;;;;;;;5061153;28;45381;-82
2021/09/09 06:22:46;;;;;;;;;34.00;29.67;;;;;;;;5063463;28;45397;-82
2021/09/09 06:25:11;;;;;;;;;36.00;29.67;;;;;;;;5070540;28;45462;-82
2021/09/09 06:27:37;;;;;;;;;33.50;29.50;;;;;;;;5071295;28;45516;-82
2021/09/09 06:30:03;;;;;;;;;31.50;27.50;;;;;;;;5071544;28;45389;-81
2021/09/09 06:32:29;;;;;;;;;36.50;28.00;;;;;;;;5073095;28;45538;-81
2021/09/09 06:34:54;;;;;;;;;34.00;28.00;;;;;;;;5066767;28;45461;-81
2021/09/09 06:37:19;;;;;;;;;36.00;29.00;;;;;;;;5071899;28;46259;-81
2021/09/09 06:39:44;;;;;;;;;35.67;30.33;;;;;;;;5072641;28;45454;-81
2021/09/09 06:42:10;;;;;;;;;39.33;32.00;;;;;;;;5066528;28;45534;-81
2021/09/09 06:44:35;;;;;;;;;30.00;26.00;;;;;;;;5075001;28;45401;-81
2021/09/09 06:47:00;;;;;;;;;31.50;30.00;;;;;;;;5064382;28;45609;-81
2021/09/09 06:49:25;;;;;;;;;33.67;30.00;;;;;;;;5058276;28;45444;-82
2021/09/09 06:51:51;;;;;;;;;34.33;31.00;;;;;;;;5060329;28;45471;-83
2021/09/09 06:54:16;;;;;;;;;40.33;32.00;;;;;;;;5059705;28;45550;-81
2021/09/09 06:56:42;;;;;;;;;31.25;27.25;;;;;;;;5058251;27;46241;-82
2021/09/09 06:59:10;;;;;;;;;29.00;27.00;;;;;;;;5060018;28;45495;-82
2021/09/09 07:01:35;;;;;;;;;32.25;30.50;;;;;;;;5058658;27;45413;-81
2021/09/09 07:04:00;;;;;;;;;39.00;29.33;;;;;;;;5059542;28;45535;-82
2021/09/09 07:06:25;;;;;;;;;47.00;39.00;;;;;;;;5058308;28;45596;-82
2021/09/09 07:08:50;;;;;;;;;34.00;30.33;;;;;;;;5058367;28;45445;-81
2021/09/09 07:11:16;;;;;;;;;37.33;31.33;;;;;;;;5058417;28;45405;-81
2021/09/09 07:13:41;;;;;;;;;33.67;27.67;;;;;;;;5062614;28;45347;-82
2021/09/09 07:16:06;;;;;;;;;38.00;27.75;;;;;;;;5058067;28;46863;-82
2021/09/09 07:18:34;;;;;;;;;31.00;29.75;;;;;;;;5058480;28;45378;-82
2021/09/09 07:21:00;;;;;;;;;35.00;31.00;;;;;;;;5061390;28;45541;-82
2021/09/09 07:23:25;;;;;;;;;35.50;29.50;;;;;;;;5062958;28;45508;-82
2021/09/09 07:25:50;;;;;;;;;29.00;27.75;;;;;;;;5060585;28;46640;-83
2021/09/09 07:28:16;;;;;;;;;33.75;29.75;;;;;;;;5064374;27;45389;-82
2021/09/09 07:30:41;;;;;;;;;33.00;29.25;;;;;;;;5062319;28;46158;-85
2021/09/09 07:33:06;;;;;;;;;37.25;28.50;;;;;;;;5069869;27;45430;-82
2021/09/09 07:35:32;;;;;;;;;38.00;31.33;;;;;;;;5069619;28;46188;-82
2021/09/09 07:37:57;;;;;;;;;31.75;27.50;;;;;;;;5068469;28;45469;-84
2021/09/09 07:40:22;;;;;;;;;36.25;30.50;;;;;;;;5066175;28;46661;-84
2021/09/09 07:42:48;;;;;;;;;34.00;28.75;;;;;;;;5073923;28;46021;-83
2021/09/09 07:45:13;;;;;;;;;33.00;27.33;;;;;;;;5066896;28;45330;-81
2021/09/09 07:47:38;;;;;;;;;32.33;27.00;;;;;;;;5061825;28;45382;-81
2021/09/09 07:50:06;;;;;;;;;33.00;28.50;;;;;;;;5068137;28;46173;-80
2021/09/09 07:52:32;;;;;;;;;31.75;27.50;;;;;;;;5066141;28;45493;-82
2021/09/09 07:54:57;;;;;;;;;32.67;30.00;;;;;;;;5064295;28;46824;-82
2021/09/09 07:57:22;;;;;;;;;35.00;30.33;;;;;;;;5066724;28;45434;-82
2021/09/09 07:59:47;;;;;;;;;39.33;32.33;;;;;;;;5063728;28;45496;-81
2021/09/09 08:02:14;;;;;;;;;31.33;28.67;;;;;;;;5067369;28;45555;-82
2021/09/09 08:04:40;;;;;;;;;37.25;28.00;;;;;;;;5072701;28;45997;-81
2021/09/09 08:07:05;;;;;;;;;31.75;26.00;;;;;;;;5071763;27;45275;-81
2021/09/09 08:09:30;;;;;;;;;29.75;27.25;;;;;;;;5071151;28;45489;-81
2021/09/09 08:11:56;;;;;;;;;37.00;29.33;;;;;;;;5079951;28;45434;-82
2021/09/09 08:14:21;;;;;;;;;32.25;30.00;;;;;;;;5077199;28;46883;-82
2021/09/09 08:16:46;;;;;;;;;33.50;27.50;;;;;;;;5069858;28;46280;-82
2021/09/09 08:19:12;;;;;;;;;33.50;29.00;;;;;;;;5073796;28;45418;-82
2021/09/09 08:21:37;;;;;;;;;29.25;26.25;;;;;;;;5071342;28;45785;-81
2021/09/09 08:24:03;;;;;;;;;30.25;27.75;;;;;;;;5076681;27;47122;-82
2021/09/09 08:26:28;;;;;;;;;29.25;25.25;;;;;;;;5078030;28;45385;-81
2021/09/09 08:28:53;;;;;;;;;34.50;29.25;;;;;;;;5086620;28;45264;-81
2021/09/09 08:31:20;;;;;;;;;33.00;25.67;;;;;;;;5082823;27;45374;-81
2021/09/09 08:33:45;;;;;;;;;28.25;24.00;;;;;;;;5081412;28;45748;-81
2021/09/09 08:36:12;;;;;;;;;27.25;22.25;;;;;;;;5077262;28;46171;-81
2021/09/09 08:38:37;;;;;;;;;23.75;21.50;;;;;;;;5076468;28;45342;-81
2021/09/09 08:41:03;;;;;;;;;26.00;22.50;;;;;;;;5073356;28;45607;-81
2021/09/09 08:43:28;;;;;;;;;31.50;26.00;;;;;;;;5073301;28;45366;-80
2021/09/09 08:45:54;;;;;;;;;29.75;25.75;;;;;;;;5069726;27;45631;-81
2021/09/09 08:48:20;;;;;;;;;25.25;24.00;;;;;;;;5076070;28;45497;-82
2021/09/09 08:50:46;;;;;;;;;27.50;20.50;;;;;;;;5068512;28;45518;-81
2021/09/09 08:53:13;;;;;;;;;26.75;25.25;;;;;;;;5077363;28;46703;-81
2021/09/09 08:55:38;;;;;;;;;29.50;25.25;;;;;;;;5067297;28;46028;-81
2021/09/09 08:58:05;;;;;;;;;38.50;28.75;;;;;;;;5074505;28;45488;-80
2021/09/09 09:00:31;;;;;;;;;28.75;21.25;;;;;;;;5075662;27;45520;-81
2021/09/09 09:02:57;;;;;;;;;29.00;24.25;;;;;;;;5077242;28;45580;-81
2021/09/09 09:05:23;;;;;;;;;22.75;21.75;;;;;;;;5068035;28;45752;-81
2021/09/09 09:08:02;;;;;;;;;23.50;19.25;;;;;;;;5073392;28;45463;-81
2021/09/09 09:10:28;;;;;;;;;23.75;19.25;;;;;;;;5073641;28;45279;-82
2021/09/09 09:12:53;;;;;;;;;26.50;23.25;;;;;;;;5074154;28;47005;-80
2021/09/09 09:15:21;;;;;;;;;24.25;21.50;;;;;;;;5073199;27;45403;-82
2021/09/09 09:17:56;;;;;;;;;25.75;23.00;;;;;;;;5076280;28;45558;-81
2021/09/09 09:20:25;;;;;;;;;25.75;19.00;;;;;;;;5071118;27;45817;-80
2021/09/09 09:22:51;;;;;;;;;23.50;21.75;;;;;;;;5069217;28;45431;-81
2021/09/09 09:25:17;;;;;;;;;25.75;20.75;;;;;;;;5071139;28;45992;-81
2021/09/09 09:27:46;;;;;;;;;27.75;24.25;;;;;;;;5069226;28;45702;-81
2021/09/09 09:30:12;;;;;;;;;24.00;21.25;;;;;;;;5070002;27;45575;-81
2021/09/09 09:32:50;;;;;;;;;23.50;22.00;;;;;;;;5069504;28;46654;-81
2021/09/09 09:35:18;;;;;;;;;22.50;19.75;;;;;;;;5069847;27;45311;-81
2021/09/09 09:37:54;;;;;;;;;21.50;18.75;;;;;;;;5064514;27;45566;-81
2021/09/09 09:40:27;;;;;;;;;27.25;22.25;;;;;;;;5073680;27;45471;-81
2021/09/09 09:42:52;;;;;;;;;27.25;24.50;;;;;;;;5068779;28;46821;-81
2021/09/09 09:45:17;;;;;;;;;22.50;21.25;;;;;;;;5073629;28;45510;-82
2021/09/09 09:47:43;;;;;;;;;26.25;22.75;;;;;;;;5073747;28;45435;-81
2021/09/09 09:50:18;;;;;;;;;30.00;22.50;;;;;;;;5074114;27;45696;-81
2021/09/09 09:52:44;;;;;;;;;25.25;22.25;;;;;;;;5069800;28;46056;-82
2021/09/09 09:55:10;;;;;;;;;24.50;22.75;;;;;;;;5074385;28;45535;-80
2021/09/09 09:57:49;;;;;;;;;26.00;23.00;;;;;;;;5076831;28;45513;-81
2021/09/09 10:00:14;;;;;;;;;25.75;21.75;;;;;;;;5070569;27;45570;-82
2021/09/09 10:02:40;;;;;;;;;26.50;20.00;;;;;;;;5074549;28;47068;-82
2021/09/09 10:05:06;;;;;;;;;21.50;19.75;;;;;;;;5068766;28;45294;-81
2021/09/09 10:07:31;;;;;;;;;29.75;23.25;;;;;;;;5067639;28;45418;-81
2021/09/09 10:09:57;;;;;;;;;23.50;22.25;;;;;;;;5075362;28;45442;-81
2021/09/09 10:12:25;;;;;;;;;28.25;23.25;;;;;;;;5073727;27;46456;-80
2021/09/09 10:14:51;;;;;;;;;24.50;22.00;;;;;;;;5071500;28;45547;-81
2021/09/09 10:17:18;;;;;;;;;25.75;21.25;;;;;;;;5071333;28;45787;-81
2021/09/09 10:19:43;;;;;;;;;25.25;22.50;;;;;;;;5072511;28;45486;-82
2021/09/09 10:22:11;;;;;;;;;27.00;21.00;;;;;;;;5069145;28;45447;-82
2021/09/09 10:24:37;;;;;;;;;26.00;21.00;;;;;;;;5075647;28;45562;-82
2021/09/09 10:27:21;;;;;;;;;21.50;19.75;;;;;;;;5071347;28;45354;-82
2021/09/09 10:29:49;;;;;;;;;22.75;21.75;;;;;;;;5070644;28;45360;-82
2021/09/09 10:32:29;;;;;;;;;19.00;18.25;;;;;;;;5069153;27;45318;-83
2021/09/09 10:35:13;;;;;;;;;23.25;18.75;;;;;;;;5074922;28;45556;-83
2021/09/09 10:37:38;;;;;;;;;21.00;20.00;;;;;;;;5075146;28;45839;-83
2021/09/09 10:40:04;;;;;;;;;26.00;21.00;;;;;;;;5068356;28;45494;-83
2021/09/09 10:42:36;;;;;;;;;18.50;16.00;;;;;;;;5072583;27;47448;-82
2021/09/09 10:45:02;;;;;;;;;21.50;19.50;;;;;;;;5081356;28;45380;-84
2021/09/09 10:47:29;;;;;;;;;16.00;16.00;;;;;;;;5076848;27;45428;-84
2021/09/09 10:50:04;;;;;;;;;19.00;17.00;;;;;;;;5062507;28;45586;-84
2021/09/09 10:52:29;;;;;;;;;17.50;16.25;;;;;;;;5071453;27;46699;-84
2021/09/09 10:55:03;;;;;;;;;18.75;18.25;;;;;;;;5072711;27;45351;-85
2021/09/09 10:57:28;;;;;;;;;18.00;14.00;;;;;;;;5069486;28;45388;-84
2021/09/09 10:59:54;;;;;;;;;17.75;15.00;;;;;;;;5062415;28;45506;-85
2021/09/09 11:02:19;;;;;;;;;16.67;16.00;;;;;;;;5071402;28;48430;-84
2021/09/09 11:04:45;;;;;;;;;19.75;16.00;;;;;;;;5064662;28;45882;-84
2021/09/09 11:07:27;;;;;;;;;19.50;17.25;;;;;;;;5070987;28;45489;-83
2021/09/09 11:09:59;;;;;;;;;14.50;12.75;;;;;;;;5073768;28;45422;-83
2021/09/09 11:12:24;;;;;;;;;15.00;12.00;;;;;;;;5071537;28;46454;-82
2021/09/09 11:14:50;;;;;;;;;13.00;11.00;;;;;;;;5076545;27;45440;-83
2021/09/09 11:17:15;;;;;;;;;9.50;9.25;;;;;;;;5062719;28;45479;-83
2021/09/09 11:19:40;;;;;;;;;11.50;10.25;;;;;;;;5071107;28;45776;-82
2021/09/09 11:22:06;;;;;;;;;11.67;10.33;;;;;;;;5066536;28;48348;-83
2021/09/09 11:24:35;;;;;;;;;10.50;10.50;;;;;;;;5074033;28;46446;-84
2021/09/09 11:27:00;;;;;;;;;10.25;9.00;;;;;;;;5074864;28;45336;-83
2021/09/09 11:29:25;;;;;;;;;10.25;9.00;;;;;;;;5066646;28;45475;-83
2021/09/09 11:31:52;;;;;;;;;7.67;7.67;;;;;;;;5070199;28;45453;-83
2021/09/09 11:34:22;;;;;;;;;8.25;8.25;;;;;;;;5071049;28;45264;-83
2021/09/09 11:36:47;;;;;;;;;8.50;7.00;;;;;;;;5061921;28;45780;-84
2021/09/09 11:39:19;;;;;;;;;7.50;7.50;;;;;;;;5066534;28;45411;-83
2021/09/09 11:41:44;;;;;;;;;7.50;7.50;;;;;;;;5062035;28;46080;-83
2021/09/09 11:44:30;;;;;;;;;10.00;8.00;;;;;;;;5067873;28;45455;-83
2021/09/09 11:46:56;;;;;;;;;12.25;8.25;;;;;;;;5066124;27;45390;-83
2021/09/09 11:49:22;;;;;;;;;7.00;7.00;;;;;;;;5069560;28;45683;-81
2021/09/09 11:51:54;;;;;;;;;8.75;5.25;;;;;;;;5071533;28;46738;-82
2021/09/09 11:54:22;;;;;;;;;4.50;4.00;;;;;;;;5067914;28;45303;-81
2021/09/09 11:56:48;;;;;;;;;6.00;4.00;;;;;;;;5074867;28;45469;-81
2021/09/09 11:59:18;;;;;;;;;9.25;6.25;;;;;;;;5077957;28;45330;-82
2021/09/09 12:01:45;;;;;;;;;5.50;4.50;;;;;;;;5071432;28;46124;-82
2021/09/09 12:04:12;;;;;;;;;4.75;4.00;;;;;;;;5077853;28;45610;-82
2021/09/09 12:06:38;;;;;;;;;3.25;3.00;;;;;;;;5071538;28;45446;-83
2021/09/09 12:09:04;;;;;;;;;3.00;2.00;;;;;;;;5076879;28;45547;-83
2021/09/09 12:11:29;;;;;;;;;2.75;2.75;;;;;;;;5072374;28;45631;-82
2021/09/09 12:13:55;;;;;;;;;3.00;3.00;;;;;;;;5075385;28;45504;-82
2021/09/09 12:16:22;;;;;;;;;2.25;2.25;;;;;;;;5069731;28;46791;-82
2021/09/09 12:19:00;;;;;;;;;1.25;1.25;;;;;;;;5074726;28;45394;-82
2021/09/09 12:21:25;;;;;;;;;2.75;2.00;;;;;;;;5074296;28;48184;-82
2021/09/09 12:24:04;;;;;;;;;1.00;1.00;;;;;;;;5075649;28;45589;-82
2021/09/09 12:26:29;;;;;;;;;2.00;0.75;;;;;;;;5070032;28;45445;-82
2021/09/09 12:28:55;;;;;;;;;2.00;1.00;;;;;;;;5077736;28;45501;-82
2021/09/09 12:31:36;;;;;;;;;1.50;1.50;;;;;;;;5067234;28;47805;-82
2021/09/09 12:34:11;;;;;;;;;1.25;1.25;;;;;;;;5072651;28;45577;-82
2021/09/09 12:36:39;;;;;;;;;1.00;1.00;;;;;;;;5069896;28;46475;-82
2021/09/09 12:39:05;;;;;;;;;1.00;1.00;;;;;;;;5073602;28;45310;-82
2021/09/09 12:41:30;;;;;;;;;2.50;2.50;;;;;;;;5073445;28;46574;-82
2021/09/09 12:43:59;;;;;;;;;1.00;1.00;;;;;;;;5071346;28;45510;-82
2021/09/09 12:46:24;;;;;;;;;3.00;1.50;;;;;;;;5068676;28;45456;-82
2021/09/09 12:49:09;;;;;;;;;1.75;1.75;;;;;;;;5078480;28;45333;-81
2021/09/09 12:51:35;;;;;;;;;3.00;1.00;;;;;;;;5070214;28;45415;-82
2021/09/09 12:54:00;;;;;;;;;0.50;0.50;;;;;;;;5070830;28;45430;-82
2021/09/09 12:56:26;;;;;;;;;2.00;2.00;;;;;;;;5079569;28;45449;-82
2021/09/09 12:58:52;;;;;;;;;1.00;1.00;;;;;;;;5080921;28;45466;-81
2021/09/09 13:01:17;;;;;;;;;0.50;0.50;;;;;;;;5091052;27;48058;-82
2021/09/09 13:03:43;;;;;;;;;1.25;1.25;;;;;;;;5086093;28;45390;-82
2021/09/09 13:06:09;;;;;;;;;1.00;1.00;;;;;;;;5075640;28;45416;-82
2021/09/09 13:08:34;;;;;;;;;1.75;1.75;;;;;;;;5082351;28;45427;-82
2021/09/09 13:11:00;;;;;;;;;1.75;1.00;;;;;;;;5079504;28;46309;-82
2021/09/09 13:13:25;;;;;;;;;1.00;1.00;;;;;;;;5080363;28;45364;-82
2021/09/09 13:15:51;;;;;;;;;1.25;1.00;;;;;;;;5075939;28;45908;-82
2021/09/09 13:18:16;;;;;;;;;2.50;1.00;;;;;;;;5081252;28;45489;-82
2021/09/09 13:20:42;;;;;;;;;1.00;1.00;;;;;;;;5072404;28;47521;-81
2021/09/09 13:23:08;;;;;;;;;2.00;2.00;;;;;;;;5078256;28;45500;-82
2021/09/09 13:25:34;;;;;;;;;2.50;1.00;;;;;;;;5074024;28;45370;-82
2021/09/09 13:28:00;;;;;;;;;3.00;1.00;;;;;;;;5070491;27;45358;-82
2021/09/09 13:30:25;;;;;;;;;1.00;1.00;;;;;;;;5077550;28;47096;-81
2021/09/09 13:32:51;;;;;;;;;2.50;2.50;;;;;;;;5070382;28;46526;-82
2021/09/09 13:35:16;;;;;;;;;3.00;1.00;;;;;;;;5078384;28;46503;-81
2021/09/09 13:37:42;;;;;;;;;2.50;1.50;;;;;;;;5070504;28;45994;-81
2021/09/09 13:40:08;;;;;;;;;1.25;1.25;;;;;;;;5070081;28;46058;-82
2021/09/09 13:42:33;;;;;;;;;4.50;1.50;;;;;;;;5069569;28;45380;-82
2021/09/09 13:44:58;;;;;;;;;1.67;1.00;;;;;;;;5076970;28;45408;-82
2021/09/09 13:47:23;;;;;;;;;2.00;1.00;;;;;;;;5076641;28;45857;-82
2021/09/09 13:49:49;;;;;;;;;1.00;0.50;;;;;;;;5076316;28;46313;-82
2021/09/09 13:52:14;;;;;;;;;0.50;0.50;;;;;;;;5071814;28;45523;-82
2021/09/09 13:54:39;;;;;;;;;1.75;1.75;;;;;;;;5073468;28;45325;-82
2021/09/09 13:57:05;;;;;;;;;1.00;1.00;;;;;;;;5070898;28;45843;-82
2021/09/09 13:59:31;;;;;;;;;1.50;1.50;;;;;;;;5073764;28;47354;-82
2021/09/09 14:01:56;;;;;;;;;1.75;1.00;;;;;;;;5067769;28;45619;-82
2021/09/09 14:04:22;;;;;;;;;0.50;0.50;;;;;;;;5076333;28;45161;-82
2021/09/09 14:06:47;;;;;;;;;1.67;1.67;;;;;;;;5070083;27;45985;-82
2021/09/09 14:09:12;;;;;;;;;2.00;0.33;;;;;;;;5066723;28;45378;-82
2021/09/09 14:11:38;;;;;;;;;0.00;0.00;;;;;;;;5076149;28;45568;-82
2021/09/09 14:14:03;;;;;;;;;0.50;0.50;;;;;;;;5078113;27;45386;-82
2021/09/09 14:16:28;;;;;;;;;1.00;0.50;;;;;;;;5074000;28;45425;-82